sensor_id;sensor_type;location;lat;lon;timestamp;P1;durP1;ratioP1;P2;durP2;ratioP2
21621;SDS011;10973;46.706;12.340;2022-07-18T00:01:25;8.83;;;8.07;;
21621;SDS011;10973;46.706;12.340;2022-07-18T00:03:52;9.43;;;8.73;;
21621;SDS011;10973;46.706;12.340;2022-07-18T00:06:19;9.35;;;8.55;;
21621;SDS011;10973;46.706;12.340;2022-07-18T00:08:47;8.75;;;8.05;;
21621;SDS011;10973;46.706;12.340;2022-07-18T00:11:14;9.47;;;8.77;;
21621;SDS011;10973;46.706;12.340;2022-07-18T00:13:41;9.53;;;8.83;;
21621;SDS011;10973;46.706;12.340;2022-07-18T00:16:09;9.77;;;9.07;;
21621;SDS011;10973;46.706;12.340;2022-07-18T00:18:36;9.53;;;8.73;;
21621;SDS011;10973;46.706;12.340;2022-07-18T00:21:04;9.23;;;8.43;;
21621;SDS011;10973;46.706;12.340;2022-07-18T00:23:31;9.37;;;8.67;;
21621;SDS011;10973;46.706;12.340;2022-07-18T00:25:58;9.53;;;8.83;;
21621;SDS011;10973;46.706;12.340;2022-07-18T00:28:26;9.10;;;8.40;;
21621;SDS011;10973;46.706;12.340;2022-07-18T00:30:53;9.20;;;8.50;;
21621;SDS011;10973;46.706;12.340;2022-07-18T00:33:21;8.97;;;8.17;;
21621;SDS011;10973;46.706;12.340;2022-07-18T00:39:48;9.50;;;8.63;;
21621;SDS011;10973;46.706;12.340;2022-07-18T00:42:15;9.43;;;8.63;;
21621;SDS011;10973;46.706;12.340;2022-07-18T00:44:42;9.30;;;8.60;;
21621;SDS011;10973;46.706;12.340;2022-07-18T00:47:10;9.47;;;8.77;;
21621;SDS011;10973;46.706;12.340;2022-07-18T00:49:37;9.60;;;8.80;;
21621;SDS011;10973;46.706;12.340;2022-07-18T00:52:05;9.57;;;8.87;;
21621;SDS011;10973;46.706;12.340;2022-07-18T00:54:32;9.40;;;8.60;;
21621;SDS011;10973;46.706;12.340;2022-07-18T00:57:00;9.00;;;8.30;;
21621;SDS011;10973;46.706;12.340;2022-07-18T00:59:27;9.83;;;8.97;;
21621;SDS011;10973;46.706;12.340;2022-07-18T01:01:56;8.67;;;8.07;;
21621;SDS011;10973;46.706;12.340;2022-07-18T01:04:23;9.97;;;9.17;;
21621;SDS011;10973;46.706;12.340;2022-07-18T01:06:51;9.20;;;8.47;;
21621;SDS011;10973;46.706;12.340;2022-07-18T01:09:18;9.53;;;8.83;;
21621;SDS011;10973;46.706;12.340;2022-07-18T01:11:46;9.80;;;8.87;;
21621;SDS011;10973;46.706;12.340;2022-07-18T01:14:14;9.07;;;8.17;;
21621;SDS011;10973;46.706;12.340;2022-07-18T01:16:42;9.17;;;8.57;;
21621;SDS011;10973;46.706;12.340;2022-07-18T01:19:10;8.60;;;8.00;;
21621;SDS011;10973;46.706;12.340;2022-07-18T01:21:38;9.10;;;8.40;;
21621;SDS011;10973;46.706;12.340;2022-07-18T01:24:05;9.67;;;8.97;;
21621;SDS011;10973;46.706;12.340;2022-07-18T01:26:33;10.20;;;9.40;;
21621;SDS011;10973;46.706;12.340;2022-07-18T01:29:01;9.73;;;9.03;;
21621;SDS011;10973;46.706;12.340;2022-07-18T01:31:28;9.37;;;8.60;;
21621;SDS011;10973;46.706;12.340;2022-07-18T01:33:56;10.07;;;9.17;;
21621;SDS011;10973;46.706;12.340;2022-07-18T01:36:23;9.67;;;8.70;;
21621;SDS011;10973;46.706;12.340;2022-07-18T01:38:50;9.87;;;8.93;;
21621;SDS011;10973;46.706;12.340;2022-07-18T01:41:18;9.20;;;8.60;;
21621;SDS011;10973;46.706;12.340;2022-07-18T01:43:45;8.80;;;8.10;;
21621;SDS011;10973;46.706;12.340;2022-07-18T01:46:12;9.33;;;8.63;;
21621;SDS011;10973;46.706;12.340;2022-07-18T01:48:40;9.40;;;8.70;;
21621;SDS011;10973;46.706;12.340;2022-07-18T01:51:08;9.20;;;8.50;;
21621;SDS011;10973;46.706;12.340;2022-07-18T01:53:35;9.27;;;8.53;;
21621;SDS011;10973;46.706;12.340;2022-07-18T01:56:05;9.60;;;8.83;;
21621;SDS011;10973;46.706;12.340;2022-07-18T01:58:33;9.67;;;8.97;;
21621;SDS011;10973;46.706;12.340;2022-07-18T02:01:01;9.07;;;8.37;;
21621;SDS011;10973;46.706;12.340;2022-07-18T02:07:30;9.97;;;9.00;;
21621;SDS011;10973;46.706;12.340;2022-07-18T02:10:16;9.43;;;8.73;;
21621;SDS011;10973;46.706;12.340;2022-07-18T02:12:45;9.73;;;8.97;;
21621;SDS011;10973;46.706;12.340;2022-07-18T02:15:13;9.57;;;8.67;;
21621;SDS011;10973;46.706;12.340;2022-07-18T02:17:41;8.73;;;8.13;;
21621;SDS011;10973;46.706;12.340;2022-07-18T02:20:11;9.27;;;8.47;;
21621;SDS011;10973;46.706;12.340;2022-07-18T02:22:40;9.73;;;9.03;;
21621;SDS011;10973;46.706;12.340;2022-07-18T02:25:09;10.20;;;9.23;;
21621;SDS011;10973;46.706;12.340;2022-07-18T02:27:37;9.73;;;8.93;;
21621;SDS011;10973;46.706;12.340;2022-07-18T02:30:06;9.40;;;8.60;;
21621;SDS011;10973;46.706;12.340;2022-07-18T02:32:35;9.23;;;8.60;;
21621;SDS011;10973;46.706;12.340;2022-07-18T02:39:13;10.40;;;9.30;;
21621;SDS011;10973;46.706;12.340;2022-07-18T02:45:50;10.13;;;9.20;;
21621;SDS011;10973;46.706;12.340;2022-07-18T02:48:17;10.03;;;9.33;;
21621;SDS011;10973;46.706;12.340;2022-07-18T02:50:45;10.00;;;9.20;;
21621;SDS011;10973;46.706;12.340;2022-07-18T02:53:12;9.10;;;8.37;;
21621;SDS011;10973;46.706;12.340;2022-07-18T02:55:39;10.23;;;9.33;;
21621;SDS011;10973;46.706;12.340;2022-07-18T03:00:44;9.33;;;8.63;;
21621;SDS011;10973;46.706;12.340;2022-07-18T03:03:11;9.63;;;8.83;;
21621;SDS011;10973;46.706;12.340;2022-07-18T03:14:13;9.37;;;8.57;;
21621;SDS011;10973;46.706;12.340;2022-07-18T03:16:40;9.67;;;8.87;;
21621;SDS011;10973;46.706;12.340;2022-07-18T03:19:08;10.47;;;9.67;;
21621;SDS011;10973;46.706;12.340;2022-07-18T03:21:35;9.37;;;8.67;;
21621;SDS011;10973;46.706;12.340;2022-07-18T03:24:03;10.47;;;9.67;;
21621;SDS011;10973;46.706;12.340;2022-07-18T03:26:30;9.63;;;8.93;;
21621;SDS011;10973;46.706;12.340;2022-07-18T03:28:58;10.00;;;9.20;;
21621;SDS011;10973;46.706;12.340;2022-07-18T03:31:36;10.67;;;9.77;;
21621;SDS011;10973;46.706;12.340;2022-07-18T03:34:04;9.53;;;8.83;;
21621;SDS011;10973;46.706;12.340;2022-07-18T03:47:42;11.37;;;10.37;;
21621;SDS011;10973;46.706;12.340;2022-07-18T03:50:10;9.90;;;9.10;;
21621;SDS011;10973;46.706;12.340;2022-07-18T03:52:37;11.73;;;10.47;;
21621;SDS011;10973;46.706;12.340;2022-07-18T03:55:05;11.30;;;10.40;;
21621;SDS011;10973;46.706;12.340;2022-07-18T04:00:39;12.07;;;10.97;;
21621;SDS011;10973;46.706;12.340;2022-07-18T04:03:06;11.63;;;10.60;;
21621;SDS011;10973;46.706;12.340;2022-07-18T04:09:43;12.07;;;11.03;;
21621;SDS011;10973;46.706;12.340;2022-07-18T04:12:10;12.30;;;11.20;;
21621;SDS011;10973;46.706;12.340;2022-07-18T04:14:38;10.63;;;9.83;;
21621;SDS011;10973;46.706;12.340;2022-07-18T04:25:25;14.07;;;11.87;;
21621;SDS011;10973;46.706;12.340;2022-07-18T04:27:55;13.87;;;12.10;;
21621;SDS011;10973;46.706;12.340;2022-07-18T04:30:23;13.50;;;12.20;;
21621;SDS011;10973;46.706;12.340;2022-07-18T04:37:02;12.60;;;11.60;;
21621;SDS011;10973;46.706;12.340;2022-07-18T04:43:40;13.70;;;11.73;;
21621;SDS011;10973;46.706;12.340;2022-07-18T04:46:07;12.27;;;11.27;;
21621;SDS011;10973;46.706;12.340;2022-07-18T04:48:34;11.80;;;10.70;;
21621;SDS011;10973;46.706;12.340;2022-07-18T04:51:01;11.40;;;10.40;;
21621;SDS011;10973;46.706;12.340;2022-07-18T04:53:29;11.53;;;10.37;;
21621;SDS011;10973;46.706;12.340;2022-07-18T04:55:56;11.33;;;9.97;;
21621;SDS011;10973;46.706;12.340;2022-07-18T05:02:33;11.13;;;10.03;;
21621;SDS011;10973;46.706;12.340;2022-07-18T05:05:01;9.80;;;9.10;;
21621;SDS011;10973;46.706;12.340;2022-07-18T05:11:38;13.67;;;12.37;;
21621;SDS011;10973;46.706;12.340;2022-07-18T05:14:06;12.10;;;11.10;;
21621;SDS011;10973;46.706;12.340;2022-07-18T05:28:05;13.33;;;12.00;;
21621;SDS011;10973;46.706;12.340;2022-07-18T05:34:33;21.03;;;11.10;;
21621;SDS011;10973;46.706;12.340;2022-07-18T05:37:00;20.53;;;10.80;;
21621;SDS011;10973;46.706;12.340;2022-07-18T05:39:28;15.80;;;10.63;;
21621;SDS011;10973;46.706;12.340;2022-07-18T05:41:55;19.80;;;12.00;;
21621;SDS011;10973;46.706;12.340;2022-07-18T05:44:22;16.70;;;11.43;;
21621;SDS011;10973;46.706;12.340;2022-07-18T05:46:50;14.33;;;11.50;;
21621;SDS011;10973;46.706;12.340;2022-07-18T05:53:18;13.50;;;11.17;;
21621;SDS011;10973;46.706;12.340;2022-07-18T05:55:46;11.60;;;10.60;;
21621;SDS011;10973;46.706;12.340;2022-07-18T06:02:26;10.63;;;9.73;;
21621;SDS011;10973;46.706;12.340;2022-07-18T06:04:54;10.80;;;9.90;;
21621;SDS011;10973;46.706;12.340;2022-07-18T06:07:41;10.57;;;9.77;;
21621;SDS011;10973;46.706;12.340;2022-07-18T06:10:08;11.93;;;10.73;;
21621;SDS011;10973;46.706;12.340;2022-07-18T06:12:36;11.83;;;10.63;;
21621;SDS011;10973;46.706;12.340;2022-07-18T06:15:04;14.30;;;11.70;;
21621;SDS011;10973;46.706;12.340;2022-07-18T06:17:35;11.80;;;10.80;;
21621;SDS011;10973;46.706;12.340;2022-07-18T06:20:03;11.53;;;10.37;;
21621;SDS011;10973;46.706;12.340;2022-07-18T06:22:32;10.70;;;9.80;;
21621;SDS011;10973;46.706;12.340;2022-07-18T06:24:59;10.60;;;9.60;;
21621;SDS011;10973;46.706;12.340;2022-07-18T06:31:26;9.90;;;9.10;;
21621;SDS011;10973;46.706;12.340;2022-07-18T06:33:54;10.13;;;9.43;;
21621;SDS011;10973;46.706;12.340;2022-07-18T06:39:52;9.93;;;9.13;;
21621;SDS011;10973;46.706;12.340;2022-07-18T06:42:19;9.17;;;8.27;;
21621;SDS011;10973;46.706;12.340;2022-07-18T06:44:47;9.50;;;8.70;;
21621;SDS011;10973;46.706;12.340;2022-07-18T06:47:14;9.27;;;8.57;;
21621;SDS011;10973;46.706;12.340;2022-07-18T06:49:41;8.60;;;8.00;;
21621;SDS011;10973;46.706;12.340;2022-07-18T06:54:55;8.40;;;7.70;;
21621;SDS011;10973;46.706;12.340;2022-07-18T06:57:24;8.80;;;7.90;;
21621;SDS011;10973;46.706;12.340;2022-07-18T06:59:51;8.70;;;8.00;;
21621;SDS011;10973;46.706;12.340;2022-07-18T07:05:53;7.97;;;7.30;;
21621;SDS011;10973;46.706;12.340;2022-07-18T07:24:41;7.43;;;7.00;;
21621;SDS011;10973;46.706;12.340;2022-07-18T07:27:09;7.73;;;7.20;;
21621;SDS011;10973;46.706;12.340;2022-07-18T07:29:36;7.43;;;6.83;;
21621;SDS011;10973;46.706;12.340;2022-07-18T07:32:03;8.07;;;7.27;;
21621;SDS011;10973;46.706;12.340;2022-07-18T07:38:31;8.40;;;7.63;;
21621;SDS011;10973;46.706;12.340;2022-07-18T07:40:58;8.18;;;7.38;;
21621;SDS011;10973;46.706;12.340;2022-07-18T07:43:25;7.40;;;6.80;;
21621;SDS011;10973;46.706;12.340;2022-07-18T07:45:52;9.65;;;8.07;;
21621;SDS011;10973;46.706;12.340;2022-07-18T07:48:20;8.43;;;7.63;;
21621;SDS011;10973;46.706;12.340;2022-07-18T07:50:48;8.68;;;7.97;;
21621;SDS011;10973;46.706;12.340;2022-07-18T07:57:25;8.13;;;7.40;;
21621;SDS011;10973;46.706;12.340;2022-07-18T08:00:00;8.80;;;7.95;;
21621;SDS011;10973;46.706;12.340;2022-07-18T08:06:36;9.48;;;7.88;;
21621;SDS011;10973;46.706;12.340;2022-07-18T08:09:04;8.98;;;8.20;;
21621;SDS011;10973;46.706;12.340;2022-07-18T08:11:31;8.35;;;7.75;;
21621;SDS011;10973;46.706;12.340;2022-07-18T08:22:15;8.10;;;7.40;;
21621;SDS011;10973;46.706;12.340;2022-07-18T08:24:42;9.27;;;8.50;;
21621;SDS011;10973;46.706;12.340;2022-07-18T08:27:09;8.70;;;7.93;;
21621;SDS011;10973;46.706;12.340;2022-07-18T08:29:38;8.60;;;7.80;;
21621;SDS011;10973;46.706;12.340;2022-07-18T08:36:35;9.25;;;8.40;;
21621;SDS011;10973;46.706;12.340;2022-07-18T08:39:05;8.73;;;8.13;;
21621;SDS011;10973;46.706;12.340;2022-07-18T08:41:32;9.30;;;8.57;;
21621;SDS011;10973;46.706;12.340;2022-07-18T08:44:02;8.73;;;7.93;;
21621;SDS011;10973;46.706;12.340;2022-07-18T08:46:31;9.45;;;8.38;;
21621;SDS011;10973;46.706;12.340;2022-07-18T08:53:12;8.52;;;7.82;;
21621;SDS011;10973;46.706;12.340;2022-07-18T08:55:41;9.52;;;8.77;;
21621;SDS011;10973;46.706;12.340;2022-07-18T09:02:12;8.73;;;8.13;;
21621;SDS011;10973;46.706;12.340;2022-07-18T09:08:39;8.07;;;7.47;;
21621;SDS011;10973;46.706;12.340;2022-07-18T09:11:24;9.95;;;8.13;;
21621;SDS011;10973;46.706;12.340;2022-07-18T09:14:34;9.05;;;8.25;;
21621;SDS011;10973;46.706;12.340;2022-07-18T09:17:15;8.18;;;7.40;;
21621;SDS011;10973;46.706;12.340;2022-07-18T09:26:40;7.68;;;7.15;;
21621;SDS011;10973;46.706;12.340;2022-07-18T09:29:16;7.18;;;6.68;;
21621;SDS011;10973;46.706;12.340;2022-07-18T09:31:53;6.80;;;6.40;;
21621;SDS011;10973;46.706;12.340;2022-07-18T09:38:23;6.80;;;6.20;;
21621;SDS011;10973;46.706;12.340;2022-07-18T09:40:56;6.35;;;5.95;;
21621;SDS011;10973;46.706;12.340;2022-07-18T09:43:24;5.82;;;5.43;;
21621;SDS011;10973;46.706;12.340;2022-07-18T09:45:54;5.85;;;5.45;;
21621;SDS011;10973;46.706;12.340;2022-07-18T09:48:23;5.95;;;5.45;;
21621;SDS011;10973;46.706;12.340;2022-07-18T09:51:06;5.85;;;5.45;;
21621;SDS011;10973;46.706;12.340;2022-07-18T09:53:41;5.57;;;5.10;;
21621;SDS011;10973;46.706;12.340;2022-07-18T09:56:22;4.63;;;4.25;;
21621;SDS011;10973;46.706;12.340;2022-07-18T09:58:51;4.40;;;4.00;;
21621;SDS011;10973;46.706;12.340;2022-07-18T10:01:21;4.25;;;3.90;;
21621;SDS011;10973;46.706;12.340;2022-07-18T10:03:50;10.23;;;4.35;;
21621;SDS011;10973;46.706;12.340;2022-07-18T10:06:18;3.70;;;3.50;;
21621;SDS011;10973;46.706;12.340;2022-07-18T10:08:46;4.20;;;4.00;;
21621;SDS011;10973;46.706;12.340;2022-07-18T10:11:13;4.15;;;3.85;;
21621;SDS011;10973;46.706;12.340;2022-07-18T10:13:41;4.30;;;3.45;;
21621;SDS011;10973;46.706;12.340;2022-07-18T10:16:09;3.92;;;3.72;;
21621;SDS011;10973;46.706;12.340;2022-07-18T10:18:37;3.40;;;3.20;;
21621;SDS011;10973;46.706;12.340;2022-07-18T10:21:08;3.25;;;3.05;;
21621;SDS011;10973;46.706;12.340;2022-07-18T10:23:42;3.78;;;3.50;;
21621;SDS011;10973;46.706;12.340;2022-07-18T10:31:27;3.95;;;3.75;;
21621;SDS011;10973;46.706;12.340;2022-07-18T10:36:34;4.80;;;3.70;;
21621;SDS011;10973;46.706;12.340;2022-07-18T10:39:18;4.18;;;3.97;;
21621;SDS011;10973;46.706;12.340;2022-07-18T11:01:28;4.75;;;4.30;;
21621;SDS011;10973;46.706;12.340;2022-07-18T11:07:14;19.05;;;5.88;;
21621;SDS011;10973;46.706;12.340;2022-07-18T11:13:43;4.13;;;3.83;;
21621;SDS011;10973;46.706;12.340;2022-07-18T11:16:12;6.45;;;4.60;;
21621;SDS011;10973;46.706;12.340;2022-07-18T11:22:52;5.38;;;4.10;;
21621;SDS011;10973;46.706;12.340;2022-07-18T11:25:24;3.60;;;3.40;;
21621;SDS011;10973;46.706;12.340;2022-07-18T11:28:16;4.18;;;3.88;;
21621;SDS011;10973;46.706;12.340;2022-07-18T11:30:44;4.85;;;3.45;;
21621;SDS011;10973;46.706;12.340;2022-07-18T11:33:25;3.90;;;3.55;;
21621;SDS011;10973;46.706;12.340;2022-07-18T11:36:06;3.75;;;3.55;;
21621;SDS011;10973;46.706;12.340;2022-07-18T11:42:34;4.05;;;3.80;;
21621;SDS011;10973;46.706;12.340;2022-07-18T11:49:05;4.00;;;3.80;;
21621;SDS011;10973;46.706;12.340;2022-07-18T11:51:39;5.30;;;3.80;;
21621;SDS011;10973;46.706;12.340;2022-07-18T11:54:14;3.55;;;3.38;;
21621;SDS011;10973;46.706;12.340;2022-07-18T11:56:51;3.72;;;3.50;;
21621;SDS011;10973;46.706;12.340;2022-07-18T11:59:21;3.70;;;3.50;;
21621;SDS011;10973;46.706;12.340;2022-07-18T12:01:49;4.05;;;3.85;;
21621;SDS011;10973;46.706;12.340;2022-07-18T12:04:18;4.25;;;3.72;;
21621;SDS011;10973;46.706;12.340;2022-07-18T12:10:15;3.90;;;3.60;;
21621;SDS011;10973;46.706;12.340;2022-07-18T12:16:57;3.97;;;3.78;;
21621;SDS011;10973;46.706;12.340;2022-07-18T12:19:32;3.90;;;3.60;;
21621;SDS011;10973;46.706;12.340;2022-07-18T12:26:05;3.85;;;3.55;;
21621;SDS011;10973;46.706;12.340;2022-07-18T12:28:32;3.78;;;3.45;;
21621;SDS011;10973;46.706;12.340;2022-07-18T12:30:59;4.30;;;3.33;;
21621;SDS011;10973;46.706;12.340;2022-07-18T12:33:27;3.70;;;3.30;;
21621;SDS011;10973;46.706;12.340;2022-07-18T12:35:55;4.22;;;3.55;;
21621;SDS011;10973;46.706;12.340;2022-07-18T12:42:38;5.78;;;5.35;;
21621;SDS011;10973;46.706;12.340;2022-07-18T12:45:10;6.43;;;5.82;;
21621;SDS011;10973;46.706;12.340;2022-07-18T12:47:39;5.65;;;5.15;;
21621;SDS011;10973;46.706;12.340;2022-07-18T12:50:07;5.72;;;5.22;;
21621;SDS011;10973;46.706;12.340;2022-07-18T12:52:40;5.93;;;5.28;;
21621;SDS011;10973;46.706;12.340;2022-07-18T12:55:08;14.20;;;5.93;;
21621;SDS011;10973;46.706;12.340;2022-07-18T13:01:35;5.50;;;5.10;;
21621;SDS011;10973;46.706;12.340;2022-07-18T13:06:52;6.80;;;5.32;;
21621;SDS011;10973;46.706;12.340;2022-07-18T13:09:19;5.63;;;5.15;;
21621;SDS011;10973;46.706;12.340;2022-07-18T13:15:57;6.95;;;6.35;;
21621;SDS011;10973;46.706;12.340;2022-07-18T13:18:24;6.57;;;5.97;;
21621;SDS011;10973;46.706;12.340;2022-07-18T13:20:51;10.13;;;5.43;;
21621;SDS011;10973;46.706;12.340;2022-07-18T13:27:28;6.50;;;5.90;;
21621;SDS011;10973;46.706;12.340;2022-07-18T13:29:55;6.72;;;6.13;;
21621;SDS011;10973;46.706;12.340;2022-07-18T13:32:23;6.43;;;5.85;;
21621;SDS011;10973;46.706;12.340;2022-07-18T13:34:50;6.22;;;5.78;;
21621;SDS011;10973;46.706;12.340;2022-07-18T13:37:17;6.75;;;5.90;;
21621;SDS011;10973;46.706;12.340;2022-07-18T13:39:45;6.70;;;6.30;;
21621;SDS011;10973;46.706;12.340;2022-07-18T13:42:12;6.68;;;6.18;;
21621;SDS011;10973;46.706;12.340;2022-07-18T13:44:42;6.72;;;6.13;;
21621;SDS011;10973;46.706;12.340;2022-07-18T13:55:10;7.15;;;6.65;;
21621;SDS011;10973;46.706;12.340;2022-07-18T14:00:40;6.60;;;6.00;;
21621;SDS011;10973;46.706;12.340;2022-07-18T14:03:07;7.05;;;6.35;;
21621;SDS011;10973;46.706;12.340;2022-07-18T14:05:34;10.18;;;5.60;;
21621;SDS011;10973;46.706;12.340;2022-07-18T14:12:12;6.18;;;5.78;;
21621;SDS011;10973;46.706;12.340;2022-07-18T14:14:39;6.82;;;6.15;;
21621;SDS011;10973;46.706;12.340;2022-07-18T14:17:06;6.00;;;5.60;;
21621;SDS011;10973;46.706;12.340;2022-07-18T14:19:34;6.22;;;5.82;;
21621;SDS011;10973;46.706;12.340;2022-07-18T14:26:10;6.00;;;5.70;;
21621;SDS011;10973;46.706;12.340;2022-07-18T14:28:38;5.90;;;5.50;;
21621;SDS011;10973;46.706;12.340;2022-07-18T14:31:05;6.05;;;5.65;;
21621;SDS011;10973;46.706;12.340;2022-07-18T14:33:32;6.72;;;5.93;;
21621;SDS011;10973;46.706;12.340;2022-07-18T14:36:00;6.05;;;5.65;;
21621;SDS011;10973;46.706;12.340;2022-07-18T14:38:27;6.20;;;5.75;;
21621;SDS011;10973;46.706;12.340;2022-07-18T14:40:54;6.03;;;5.53;;
21621;SDS011;10973;46.706;12.340;2022-07-18T14:43:22;5.93;;;5.57;;
21621;SDS011;10973;46.706;12.340;2022-07-18T14:45:49;6.28;;;5.78;;
21621;SDS011;10973;46.706;12.340;2022-07-18T14:48:28;6.15;;;5.55;;
21621;SDS011;10973;46.706;12.340;2022-07-18T14:50:56;6.15;;;5.75;;
21621;SDS011;10973;46.706;12.340;2022-07-18T14:53:23;6.25;;;5.70;;
21621;SDS011;10973;46.706;12.340;2022-07-18T14:55:51;6.28;;;5.88;;
21621;SDS011;10973;46.706;12.340;2022-07-18T14:58:18;6.60;;;6.20;;
21621;SDS011;10973;46.706;12.340;2022-07-18T15:00:45;6.15;;;5.85;;
21621;SDS011;10973;46.706;12.340;2022-07-18T15:06:03;6.18;;;5.78;;
21621;SDS011;10973;46.706;12.340;2022-07-18T15:08:31;6.07;;;5.68;;
21621;SDS011;10973;46.706;12.340;2022-07-18T15:10:58;6.30;;;5.38;;
21621;SDS011;10973;46.706;12.340;2022-07-18T15:17:35;6.32;;;5.60;;
21621;SDS011;10973;46.706;12.340;2022-07-18T15:20:03;5.47;;;5.13;;
21621;SDS011;10973;46.706;12.340;2022-07-18T15:22:31;6.28;;;5.68;;
21621;SDS011;10973;46.706;12.340;2022-07-18T15:24:59;6.32;;;5.82;;
21621;SDS011;10973;46.706;12.340;2022-07-18T15:27:26;6.10;;;5.63;;
21621;SDS011;10973;46.706;12.340;2022-07-18T15:29:53;6.70;;;5.82;;
21621;SDS011;10973;46.706;12.340;2022-07-18T15:32:21;5.70;;;5.28;;
21621;SDS011;10973;46.706;12.340;2022-07-18T15:34:48;6.07;;;5.72;;
21621;SDS011;10973;46.706;12.340;2022-07-18T15:37:15;6.35;;;5.85;;
21621;SDS011;10973;46.706;12.340;2022-07-18T15:39:42;6.05;;;5.55;;
21621;SDS011;10973;46.706;12.340;2022-07-18T15:42:10;6.78;;;6.05;;
21621;SDS011;10973;46.706;12.340;2022-07-18T15:44:37;5.90;;;5.40;;
21621;SDS011;10973;46.706;12.340;2022-07-18T15:51:14;5.88;;;5.57;;
21621;SDS011;10973;46.706;12.340;2022-07-18T15:53:41;6.40;;;5.90;;
21621;SDS011;10973;46.706;12.340;2022-07-18T15:56:09;6.03;;;5.35;;
21621;SDS011;10973;46.706;12.340;2022-07-18T15:58:36;6.00;;;5.50;;
21621;SDS011;10973;46.706;12.340;2022-07-18T16:01:04;6.32;;;5.93;;
21621;SDS011;10973;46.706;12.340;2022-07-18T16:03:31;6.38;;;5.88;;
21621;SDS011;10973;46.706;12.340;2022-07-18T16:05:58;5.75;;;5.25;;
21621;SDS011;10973;46.706;12.340;2022-07-18T16:08:34;6.00;;;5.60;;
21621;SDS011;10973;46.706;12.340;2022-07-18T16:11:03;6.10;;;5.60;;
21621;SDS011;10973;46.706;12.340;2022-07-18T16:13:31;5.93;;;5.53;;
21621;SDS011;10973;46.706;12.340;2022-07-18T16:15:58;5.90;;;5.57;;
21621;SDS011;10973;46.706;12.340;2022-07-18T16:26:50;6.28;;;5.90;;
21621;SDS011;10973;46.706;12.340;2022-07-18T16:33:27;6.22;;;5.72;;
21621;SDS011;10973;46.706;12.340;2022-07-18T16:35:54;6.93;;;6.50;;
21621;SDS011;10973;46.706;12.340;2022-07-18T16:38:22;6.80;;;6.15;;
21621;SDS011;10973;46.706;12.340;2022-07-18T16:40:49;6.50;;;6.00;;
21621;SDS011;10973;46.706;12.340;2022-07-18T16:43:17;6.32;;;5.85;;
21621;SDS011;10973;46.706;12.340;2022-07-18T16:45:45;5.80;;;5.50;;
21621;SDS011;10973;46.706;12.340;2022-07-18T16:48:13;8.73;;;5.95;;
21621;SDS011;10973;46.706;12.340;2022-07-18T16:50:44;6.15;;;5.75;;
21621;SDS011;10973;46.706;12.340;2022-07-18T16:53:12;6.40;;;5.88;;
21621;SDS011;10973;46.706;12.340;2022-07-18T16:55:39;6.63;;;6.18;;
21621;SDS011;10973;46.706;12.340;2022-07-18T16:58:07;7.00;;;6.40;;
21621;SDS011;10973;46.706;12.340;2022-07-18T17:00:36;6.85;;;6.35;;
21621;SDS011;10973;46.706;12.340;2022-07-18T17:03:04;6.95;;;6.45;;
21621;SDS011;10973;46.706;12.340;2022-07-18T17:05:34;6.70;;;6.20;;
21621;SDS011;10973;46.706;12.340;2022-07-18T17:08:02;6.88;;;6.47;;
21621;SDS011;10973;46.706;12.340;2022-07-18T17:10:30;6.30;;;5.90;;
21621;SDS011;10973;46.706;12.340;2022-07-18T17:12:58;5.68;;;5.38;;
21621;SDS011;10973;46.706;12.340;2022-07-18T17:15:25;6.53;;;5.95;;
21621;SDS011;10973;46.706;12.340;2022-07-18T17:17:54;6.90;;;6.30;;
21621;SDS011;10973;46.706;12.340;2022-07-18T17:20:28;6.05;;;5.65;;
21621;SDS011;10973;46.706;12.340;2022-07-18T17:22:57;6.32;;;5.72;;
21621;SDS011;10973;46.706;12.340;2022-07-18T17:25:26;5.95;;;5.55;;
21621;SDS011;10973;46.706;12.340;2022-07-18T17:27:53;6.47;;;5.97;;
21621;SDS011;10973;46.706;12.340;2022-07-18T17:30:20;6.50;;;6.00;;
21621;SDS011;10973;46.706;12.340;2022-07-18T17:32:48;6.38;;;5.88;;
21621;SDS011;10973;46.706;12.340;2022-07-18T17:35:35;6.72;;;6.10;;
21621;SDS011;10973;46.706;12.340;2022-07-18T17:38:03;6.35;;;5.85;;
21621;SDS011;10973;46.706;12.340;2022-07-18T17:40:30;7.30;;;6.50;;
21621;SDS011;10973;46.706;12.340;2022-07-18T17:42:59;6.47;;;5.88;;
21621;SDS011;10973;46.706;12.340;2022-07-18T17:45:27;6.82;;;6.22;;
21621;SDS011;10973;46.706;12.340;2022-07-18T17:47:54;6.30;;;5.88;;
21621;SDS011;10973;46.706;12.340;2022-07-18T17:50:22;6.85;;;6.10;;
21621;SDS011;10973;46.706;12.340;2022-07-18T17:52:51;6.95;;;6.28;;
21621;SDS011;10973;46.706;12.340;2022-07-18T17:55:19;6.13;;;5.65;;
21621;SDS011;10973;46.706;12.340;2022-07-18T17:57:50;6.70;;;6.07;;
21621;SDS011;10973;46.706;12.340;2022-07-18T18:00:18;6.85;;;6.15;;
21621;SDS011;10973;46.706;12.340;2022-07-18T18:02:48;6.43;;;6.03;;
21621;SDS011;10973;46.706;12.340;2022-07-18T18:05:16;6.53;;;6.03;;
21621;SDS011;10973;46.706;12.340;2022-07-18T18:07:44;6.35;;;5.85;;
21621;SDS011;10973;46.706;12.340;2022-07-18T18:10:12;6.53;;;6.10;;
21621;SDS011;10973;46.706;12.340;2022-07-18T18:12:40;6.38;;;5.97;;
21621;SDS011;10973;46.706;12.340;2022-07-18T18:15:11;6.85;;;6.28;;
21621;SDS011;10973;46.706;12.340;2022-07-18T18:17:38;6.50;;;6.10;;
21621;SDS011;10973;46.706;12.340;2022-07-18T18:20:05;6.10;;;5.70;;
21621;SDS011;10973;46.706;12.340;2022-07-18T18:22:33;6.20;;;5.75;;
21621;SDS011;10973;46.706;12.340;2022-07-18T18:25:01;6.40;;;6.00;;
21621;SDS011;10973;46.706;12.340;2022-07-18T18:27:28;6.95;;;6.43;;
21621;SDS011;10973;46.706;12.340;2022-07-18T18:29:55;7.22;;;6.18;;
21621;SDS011;10973;46.706;12.340;2022-07-18T18:32:23;6.28;;;5.68;;
21621;SDS011;10973;46.706;12.340;2022-07-18T18:34:50;6.70;;;6.05;;
21621;SDS011;10973;46.706;12.340;2022-07-18T18:37:17;6.57;;;6.15;;
21621;SDS011;10973;46.706;12.340;2022-07-18T18:39:45;6.88;;;6.28;;
21621;SDS011;10973;46.706;12.340;2022-07-18T18:42:12;6.60;;;6.10;;
21621;SDS011;10973;46.706;12.340;2022-07-18T18:44:39;7.03;;;6.43;;
21621;SDS011;10973;46.706;12.340;2022-07-18T18:47:07;6.53;;;5.90;;
21621;SDS011;10973;46.706;12.340;2022-07-18T18:49:43;6.53;;;5.97;;
21621;SDS011;10973;46.706;12.340;2022-07-18T18:52:14;6.72;;;6.32;;
21621;SDS011;10973;46.706;12.340;2022-07-18T18:54:41;6.43;;;5.93;;
21621;SDS011;10973;46.706;12.340;2022-07-18T19:01:19;7.35;;;6.75;;
21621;SDS011;10973;46.706;12.340;2022-07-18T19:03:46;6.97;;;6.47;;
21621;SDS011;10973;46.706;12.340;2022-07-18T19:10:20;7.45;;;6.70;;
21621;SDS011;10973;46.706;12.340;2022-07-18T19:12:47;7.25;;;6.63;;
21621;SDS011;10973;46.706;12.340;2022-07-18T19:15:15;7.50;;;6.80;;
21621;SDS011;10973;46.706;12.340;2022-07-18T19:17:42;7.20;;;6.40;;
21621;SDS011;10973;46.706;12.340;2022-07-18T19:24:19;7.28;;;6.68;;
21621;SDS011;10973;46.706;12.340;2022-07-18T19:26:46;7.40;;;6.70;;
21621;SDS011;10973;46.706;12.340;2022-07-18T19:29:14;7.35;;;6.72;;
21621;SDS011;10973;46.706;12.340;2022-07-18T19:31:41;6.97;;;6.45;;
21621;SDS011;10973;46.706;12.340;2022-07-18T19:34:09;7.20;;;6.68;;
21621;SDS011;10973;46.706;12.340;2022-07-18T19:36:36;6.85;;;6.35;;
21621;SDS011;10973;46.706;12.340;2022-07-18T19:39:03;6.75;;;6.25;;
21621;SDS011;10973;46.706;12.340;2022-07-18T19:41:31;7.32;;;6.63;;
21621;SDS011;10973;46.706;12.340;2022-07-18T19:43:58;10.35;;;6.95;;
21621;SDS011;10973;46.706;12.340;2022-07-18T19:46:26;7.40;;;6.82;;